Cervena, Czech Republic

9:18 AM CET on December 11, 2016 (GMT +0100)
Melc | | Change Station

Elev 1594 ft 49.85 °N, 17.76 °E | Updated 2 minutes ago

Mostly Cloudy
Mostly Cloudy
39.6 °F
Feels Like 32 °F
N
13.9
Wind Variable Wind from WNW
Gusts 20.6 mph

Today
High -- | Low -- °F
--% Chance of Precip.
Yesterday
High -- | Low -- °F
Precip. -- in
Pressure 29.89 in
Visibility -9999.0 miles
Clouds
Windchill 32 °F
Dew Point 32 °F
Humidity 74%
Rainfall 0.00 in
Snow Depth Not available.
7:37 AM 3:48 PM
Waxing Gibbous, 90% visible
METAR LKMT 110800Z 22017KT CAVOK 04/02 Q1012 NOSIG
Pressure 29.89 in
Visibility -9999.0 miles
Clouds
Windchill 32 °F
Dew Point 32 °F
Humidity 74%
Rainfall 0.00 in
Snow Depth Not available.
7:37 AM 3:48 PM
Waxing Gibbous, 90% visible
METAR LKMT 110800Z 22017KT CAVOK 04/02 Q1012 NOSIG

10-Day Weather Forecast

×

Almanac

Astronomy

Dec. 11, 2016 Rise Set
Actual Time
Civil Twilight
Nautical Twilight
Astronomical Twilight
Moon
Length of Visible Light
Length of Day
Tomorrow will be .
, % of the Moon is Illuminated

Today's Extremes

Country Highs Country Lows

Community

WunderPhotos

Upload Photos

1,956,706 photos uploaded!

WunderBlog® & News

Nearby

Air Quality

  Air Quality AQ Index Pollutant
Not available.

Snow Depth

Station Depth Elevation

Earthquake Activity

City Distance Mag. Time & Date
Minimum magnitude displayed is 2.5.

Coastal Water Temperatures

Place Temperature

Stations

Nearby Weather Stations

Station Location Temp. Windchill Dew Point Humidity Wind Precip. Elev Updated Type